createdAt,value
2017-12-03T00:01:38.966Z,9.97
2017-12-03T00:04:07.330Z,9.50
2017-12-03T00:06:34.804Z,11.23
2017-12-03T00:09:02.303Z,9.97
2017-12-03T00:11:29.794Z,11.47
2017-12-03T00:13:57.300Z,10.80
2017-12-03T00:16:24.790Z,10.77
2017-12-03T00:18:52.270Z,10.37
2017-12-03T00:21:19.771Z,11.27
2017-12-03T00:23:47.258Z,14.43
2017-12-03T00:26:14.748Z,8.27
2017-12-03T00:28:42.251Z,10.30
2017-12-03T00:31:09.753Z,9.30
2017-12-03T00:33:37.270Z,11.70
2017-12-03T00:36:04.779Z,15.13
2017-12-03T00:38:32.378Z,12.97
2017-12-03T00:40:59.865Z,9.80
2017-12-03T00:43:27.368Z,8.90
2017-12-03T00:45:54.849Z,10.10
2017-12-03T00:48:22.355Z,9.97
2017-12-03T00:50:49.829Z,10.20
2017-12-03T00:53:17.328Z,12.77
2017-12-03T00:55:44.883Z,9.03
2017-12-03T00:58:12.402Z,8.47
2017-12-03T01:00:39.892Z,12.20
2017-12-03T01:03:08.141Z,12.13
2017-12-03T01:05:35.630Z,9.70
2017-12-03T01:08:03.090Z,8.90
2017-12-03T01:10:30.608Z,12.50
2017-12-03T01:12:58.111Z,9.33
2017-12-03T01:15:25.569Z,10.53
2017-12-03T01:17:53.069Z,11.53
2017-12-03T01:20:20.542Z,10.90
2017-12-03T01:22:48.044Z,14.53
2017-12-03T01:25:15.517Z,9.63
2017-12-03T01:27:42.998Z,10.97
2017-12-03T01:30:10.536Z,10.87
2017-12-03T01:32:38.013Z,12.13
2017-12-03T01:35:05.516Z,11.00
2017-12-03T01:37:33.000Z,11.83
2017-12-03T01:40:00.500Z,12.27
2017-12-03T01:42:27.999Z,12.40
2017-12-03T01:44:55.464Z,12.00
2017-12-03T01:47:22.947Z,10.00
2017-12-03T01:49:50.422Z,12.97
2017-12-03T01:52:17.922Z,11.43
2017-12-03T01:54:45.441Z,14.17
2017-12-03T01:57:12.944Z,10.43
2017-12-03T01:59:40.447Z,11.50
2017-12-03T02:02:07.920Z,13.57
2017-12-03T02:04:35.411Z,13.80
2017-12-03T02:07:02.892Z,12.10
2017-12-03T02:09:30.356Z,9.00
2017-12-03T02:11:57.852Z,10.37
2017-12-03T02:14:25.326Z,10.53
2017-12-03T02:16:53.588Z,11.73
2017-12-03T02:19:21.504Z,9.20
2017-12-03T02:21:49.212Z,11.30
2017-12-03T02:24:16.702Z,11.27
2017-12-03T02:26:44.170Z,9.30
2017-12-03T02:29:11.663Z,9.90
2017-12-03T02:31:39.144Z,9.87
2017-12-03T02:34:06.612Z,11.50
2017-12-03T02:36:34.099Z,12.70
2017-12-03T02:39:01.576Z,9.67
2017-12-03T02:41:29.076Z,16.80
2017-12-03T02:43:56.563Z,14.03
2017-12-03T02:46:24.082Z,11.00
2017-12-03T02:48:51.569Z,11.33
2017-12-03T02:51:19.068Z,8.67
2017-12-03T02:53:46.566Z,9.73
2017-12-03T02:56:14.074Z,11.00
2017-12-03T02:58:41.846Z,10.37
2017-12-03T03:01:09.362Z,13.30
2017-12-03T03:03:37.905Z,12.53
2017-12-03T03:06:05.415Z,10.10
2017-12-03T03:08:32.908Z,10.13
2017-12-03T03:11:00.670Z,11.63
2017-12-03T03:13:28.151Z,12.20
2017-12-03T03:15:55.657Z,14.90
2017-12-03T03:18:23.912Z,10.23
2017-12-03T03:20:51.440Z,12.33
2017-12-03T03:23:18.927Z,10.20
2017-12-03T03:25:47.202Z,12.27
2017-12-03T03:28:14.681Z,10.23
2017-12-03T03:30:42.150Z,8.37
2017-12-03T03:33:09.928Z,11.77
2017-12-03T03:35:37.409Z,11.57
2017-12-03T03:38:04.902Z,14.20
2017-12-03T03:40:32.398Z,12.27
2017-12-03T03:42:59.892Z,13.27
2017-12-03T03:45:27.398Z,14.70
2017-12-03T03:47:54.895Z,11.10
2017-12-03T03:50:22.366Z,12.07
2017-12-03T03:52:49.878Z,13.57
2017-12-03T03:55:17.525Z,14.50
2017-12-03T03:57:45.022Z,12.70
2017-12-03T04:00:12.496Z,13.17
2017-12-03T04:02:40.009Z,12.90
2017-12-03T04:05:07.521Z,12.13
2017-12-03T04:07:35.213Z,13.00
2017-12-03T04:10:02.733Z,11.93
2017-12-03T04:12:30.200Z,14.73
2017-12-03T04:14:57.689Z,12.43
2017-12-03T04:17:25.160Z,12.23
2017-12-03T04:19:52.682Z,12.27
2017-12-03T04:22:20.180Z,13.47
2017-12-03T04:24:47.683Z,14.50
2017-12-03T04:27:15.160Z,13.10
2017-12-03T04:29:43.662Z,14.37
2017-12-03T04:32:11.139Z,12.27
2017-12-03T04:34:38.625Z,11.53
2017-12-03T04:37:06.116Z,14.03
2017-12-03T04:39:34.374Z,16.33
2017-12-03T04:42:01.864Z,17.37
2017-12-03T04:44:29.345Z,13.90
2017-12-03T04:46:56.847Z,18.13
2017-12-03T04:49:24.348Z,11.80
2017-12-03T04:51:51.838Z,15.87
2017-12-03T04:54:19.328Z,13.40
2017-12-03T04:56:47.554Z,16.27
2017-12-03T04:59:15.060Z,14.97
2017-12-03T05:01:42.605Z,13.70
2017-12-03T05:04:10.108Z,13.67
2017-12-03T05:06:37.590Z,12.07
2017-12-03T05:09:05.092Z,13.03
2017-12-03T05:11:32.606Z,13.60
2017-12-03T05:14:00.100Z,11.47
2017-12-03T05:16:27.574Z,12.17
2017-12-03T05:18:55.836Z,11.87
2017-12-03T05:21:23.314Z,8.53
2017-12-03T05:23:51.591Z,17.20
2017-12-03T05:26:19.833Z,11.80
2017-12-03T05:28:47.388Z,14.37
2017-12-03T05:31:14.885Z,21.70
2017-12-03T05:33:42.368Z,20.47
2017-12-03T05:36:09.914Z,20.43
2017-12-03T05:38:37.364Z,18.43
2017-12-03T05:41:05.843Z,14.37
2017-12-03T05:43:33.340Z,16.23
2017-12-03T05:46:00.830Z,15.43
2017-12-03T05:48:28.330Z,11.50
2017-12-03T05:50:55.849Z,12.47
2017-12-03T05:53:23.338Z,10.43
2017-12-03T05:55:50.839Z,10.70
2017-12-03T05:58:18.348Z,12.00
2017-12-03T06:00:45.860Z,12.63
2017-12-03T06:03:13.344Z,11.27
2017-12-03T06:05:41.663Z,11.23
2017-12-03T06:08:09.194Z,11.30
2017-12-03T06:10:37.492Z,14.53
2017-12-03T06:13:04.965Z,12.80
2017-12-03T06:15:32.488Z,14.60
2017-12-03T06:17:59.991Z,9.30
2017-12-03T06:20:27.491Z,11.33
2017-12-03T06:22:54.984Z,13.40
2017-12-03T06:25:22.762Z,11.17
2017-12-03T06:27:50.339Z,14.40
2017-12-03T06:30:17.871Z,15.47
2017-12-03T06:32:45.377Z,12.93
2017-12-03T06:35:12.880Z,17.90
2017-12-03T06:37:40.380Z,16.00
2017-12-03T06:40:07.870Z,17.97
2017-12-03T06:42:35.677Z,13.00
2017-12-03T06:45:03.183Z,17.37
2017-12-03T06:47:30.711Z,19.30
2017-12-03T06:49:58.222Z,8.63
2017-12-03T06:52:25.748Z,14.33
2017-12-03T06:54:53.230Z,13.27
2017-12-03T06:57:20.925Z,16.53
2017-12-03T06:59:48.476Z,23.57
2017-12-03T07:02:15.941Z,17.63
2017-12-03T07:04:43.479Z,19.80
2017-12-03T07:07:10.985Z,16.73
2017-12-03T07:09:38.511Z,19.60
2017-12-03T07:12:06.052Z,13.43
2017-12-03T07:14:33.597Z,19.03
2017-12-03T07:17:01.151Z,14.03
2017-12-03T07:19:29.493Z,23.57
2017-12-03T07:21:57.007Z,23.33
2017-12-03T07:24:24.553Z,22.63
2017-12-03T07:26:52.062Z,21.93
2017-12-03T07:29:19.576Z,19.00
2017-12-03T07:31:47.062Z,16.60
2017-12-03T07:34:14.558Z,19.57
2017-12-03T07:36:42.060Z,19.63
2017-12-03T07:39:09.583Z,23.33
2017-12-03T07:41:37.076Z,21.33
2017-12-03T07:44:04.577Z,21.20
2017-12-03T07:46:32.089Z,24.43
2017-12-03T07:48:59.624Z,21.33
2017-12-03T07:51:27.925Z,19.87
2017-12-03T07:53:55.478Z,20.70
2017-12-03T07:56:22.987Z,22.97
2017-12-03T07:58:50.503Z,25.50
2017-12-03T08:01:18.009Z,19.47
2017-12-03T08:03:45.500Z,14.30
2017-12-03T08:06:13.015Z,22.37
2017-12-03T08:08:40.556Z,19.97
2017-12-03T08:11:08.536Z,19.23
2017-12-03T08:13:38.776Z,21.83
2017-12-03T08:16:06.429Z,26.20
2017-12-03T08:18:33.983Z,26.73
2017-12-03T08:21:01.469Z,21.47
2017-12-03T08:23:28.999Z,25.83
2017-12-03T08:25:56.589Z,26.80
2017-12-03T08:28:24.082Z,29.27
2017-12-03T08:30:51.687Z,25.60
2017-12-03T08:33:19.285Z,22.40
2017-12-03T08:35:46.843Z,26.97
2017-12-03T08:38:14.407Z,26.10
2017-12-03T08:40:42.884Z,20.80
2017-12-03T08:43:11.179Z,22.97
2017-12-03T08:45:38.692Z,23.33
2017-12-03T08:48:06.217Z,28.43
2017-12-03T08:50:34.584Z,25.60
2017-12-03T08:53:02.836Z,31.13
2017-12-03T08:55:30.445Z,30.17
2017-12-03T08:57:57.941Z,19.47
2017-12-03T09:00:26.217Z,27.60
2017-12-03T09:02:54.033Z,23.87
2017-12-03T09:05:21.519Z,27.67
2017-12-03T09:07:50.725Z,29.97
2017-12-03T09:10:18.269Z,22.90
2017-12-03T09:12:45.819Z,31.83
2017-12-03T09:15:13.336Z,43.17
2017-12-03T09:17:40.932Z,24.20
2017-12-03T09:20:08.598Z,27.40
2017-12-03T09:22:36.328Z,28.87
2017-12-03T09:25:03.876Z,30.53
2017-12-03T09:27:31.437Z,30.13
2017-12-03T09:29:58.969Z,21.37
2017-12-03T09:32:27.347Z,25.90
2017-12-03T09:34:55.660Z,25.10
2017-12-03T09:37:23.209Z,25.97
2017-12-03T09:39:50.788Z,28.17
2017-12-03T09:42:18.287Z,24.50
2017-12-03T09:44:45.792Z,22.40
2017-12-03T09:47:13.293Z,26.97
2017-12-03T09:49:40.868Z,24.63
2017-12-03T09:52:08.412Z,23.50
2017-12-03T09:54:36.756Z,31.67
2017-12-03T09:57:04.276Z,26.70
2017-12-03T09:59:32.595Z,27.37
2017-12-03T10:02:00.199Z,24.63
2017-12-03T10:04:27.747Z,28.00
2017-12-03T10:06:55.305Z,29.70
2017-12-03T10:09:22.888Z,36.67
2017-12-03T10:11:50.474Z,39.57
2017-12-03T10:14:18.016Z,60.67
2017-12-03T10:16:45.541Z,29.87
2017-12-03T10:19:13.038Z,30.60
2017-12-03T10:21:41.321Z,35.43
2017-12-03T10:24:09.030Z,27.10
2017-12-03T10:26:36.819Z,23.10
2017-12-03T10:29:04.477Z,21.93
2017-12-03T10:31:32.805Z,25.63
2017-12-03T10:34:01.214Z,32.90
2017-12-03T10:36:28.825Z,23.20
2017-12-03T10:38:56.486Z,25.03
2017-12-03T10:41:25.926Z,20.80
2017-12-03T10:43:53.657Z,26.47
2017-12-03T10:46:22.079Z,31.60
2017-12-03T10:48:49.717Z,26.23
2017-12-03T10:51:17.297Z,49.43
2017-12-03T10:53:45.812Z,22.03
2017-12-03T10:56:13.455Z,27.67
2017-12-03T10:58:41.038Z,28.03
2017-12-03T11:01:11.703Z,22.30
2017-12-03T11:03:40.211Z,29.77
2017-12-03T11:06:07.875Z,29.50
2017-12-03T11:08:35.863Z,25.97
2017-12-03T11:11:03.540Z,27.30
2017-12-03T11:13:31.851Z,34.87
2017-12-03T11:15:59.410Z,20.47
2017-12-03T11:18:27.049Z,26.17
2017-12-03T11:20:54.578Z,28.57
2017-12-03T11:23:22.889Z,21.13
2017-12-03T11:25:50.433Z,28.33
2017-12-03T11:28:17.934Z,32.80
2017-12-03T11:30:45.594Z,12.17
2017-12-03T11:33:13.107Z,27.63
2017-12-03T11:35:40.678Z,20.30
2017-12-03T11:38:08.139Z,24.40
2017-12-03T11:40:35.623Z,24.20
2017-12-03T11:43:03.170Z,25.07
2017-12-03T11:45:30.787Z,25.13
2017-12-03T11:47:58.288Z,27.13
2017-12-03T11:50:25.785Z,26.57
2017-12-03T11:52:54.412Z,23.83
2017-12-03T11:55:29.871Z,19.83
2017-12-03T11:57:57.466Z,31.10
2017-12-03T12:00:24.968Z,24.50
2017-12-03T12:02:53.285Z,24.10
2017-12-03T12:05:20.775Z,22.60
2017-12-03T12:07:48.338Z,28.57
2017-12-03T12:10:15.844Z,20.00
2017-12-03T12:12:44.112Z,20.53
2017-12-03T12:15:12.402Z,27.80
2017-12-03T12:17:39.911Z,25.17
2017-12-03T12:20:07.425Z,27.50
2017-12-03T12:22:35.324Z,26.80
2017-12-03T12:25:02.824Z,22.47
2017-12-03T12:27:30.753Z,19.60
2017-12-03T12:29:58.236Z,20.40
2017-12-03T12:32:25.896Z,26.70
2017-12-03T12:34:53.415Z,20.13
2017-12-03T12:37:20.909Z,25.87
2017-12-03T12:39:48.422Z,27.00
2017-12-03T12:42:15.915Z,31.03
2017-12-03T12:44:43.417Z,25.03
2017-12-03T12:47:11.010Z,22.77
2017-12-03T12:49:38.510Z,19.87
2017-12-03T12:52:06.817Z,25.47
2017-12-03T12:54:34.360Z,19.73
2017-12-03T12:57:02.168Z,22.50
2017-12-03T12:59:29.696Z,23.67
2017-12-03T13:01:57.323Z,22.23
2017-12-03T13:04:25.217Z,25.70
2017-12-03T13:06:52.781Z,26.20
2017-12-03T13:09:20.457Z,31.07
2017-12-03T13:11:48.381Z,18.30
2017-12-03T13:14:17.303Z,21.93
2017-12-03T13:16:44.822Z,23.00
2017-12-03T13:19:12.469Z,22.97
2017-12-03T13:21:39.969Z,20.70
2017-12-03T13:24:07.482Z,20.60
2017-12-03T13:26:35.403Z,28.67
2017-12-03T13:29:03.036Z,26.50
2017-12-03T13:31:30.694Z,20.80
2017-12-03T13:33:58.294Z,30.30
2017-12-03T13:36:27.255Z,25.97
2017-12-03T13:38:54.806Z,20.80
2017-12-03T13:41:22.433Z,25.83
2017-12-03T13:43:50.069Z,20.77
2017-12-03T13:46:17.769Z,24.37
2017-12-03T13:48:45.301Z,22.20
2017-12-03T13:51:13.000Z,27.13
2017-12-03T13:53:40.531Z,23.13
2017-12-03T13:56:08.063Z,27.17
2017-12-03T13:58:36.788Z,27.77
2017-12-03T14:03:48.307Z,39.37
2017-12-03T14:06:15.870Z,29.93
2017-12-03T14:08:43.483Z,37.87
2017-12-03T14:11:11.017Z,40.53
2017-12-03T14:13:38.671Z,39.70
2017-12-03T14:16:07.151Z,34.77
2017-12-03T14:18:34.992Z,29.40
2017-12-03T14:21:02.559Z,26.43
2017-12-03T14:23:30.143Z,26.87
2017-12-03T14:25:58.157Z,26.20
2017-12-03T14:28:26.793Z,26.53
2017-12-03T14:30:54.404Z,30.40
2017-12-03T14:33:21.930Z,30.30
2017-12-03T14:35:50.306Z,26.70
2017-12-03T14:38:19.770Z,18.90
2017-12-03T14:40:47.325Z,30.13
2017-12-03T14:43:14.876Z,29.60
2017-12-03T14:45:42.379Z,25.77
2017-12-03T14:48:09.918Z,35.07
2017-12-03T14:50:37.449Z,31.37
2017-12-03T14:53:04.964Z,28.90
2017-12-03T14:55:33.278Z,31.23
2017-12-03T14:58:00.764Z,29.33
2017-12-03T15:00:28.265Z,24.30
2017-12-03T15:02:55.800Z,29.57
2017-12-03T15:05:24.105Z,29.30
2017-12-03T15:07:51.910Z,29.07
2017-12-03T15:10:19.454Z,36.10
2017-12-03T15:12:46.970Z,31.57
2017-12-03T15:15:14.533Z,32.00
2017-12-03T15:17:45.234Z,34.20
2017-12-03T15:20:12.720Z,28.67
2017-12-03T15:22:40.995Z,27.47
2017-12-03T15:25:09.262Z,33.73
2017-12-03T15:27:37.588Z,36.80
2017-12-03T15:30:05.127Z,28.13
2017-12-03T15:32:32.638Z,31.10
2017-12-03T15:35:00.385Z,29.37
2017-12-03T15:37:27.871Z,28.77
2017-12-03T15:39:55.413Z,27.13
2017-12-03T15:42:22.922Z,27.47
2017-12-03T15:44:50.426Z,29.93
2017-12-03T15:47:18.015Z,31.27
2017-12-03T15:49:46.299Z,33.97
2017-12-03T15:52:14.566Z,27.30
2017-12-03T15:54:42.841Z,30.63
2017-12-03T15:57:11.134Z,22.33
2017-12-03T15:59:38.928Z,21.63
2017-12-03T16:02:06.495Z,23.97
2017-12-03T16:04:34.084Z,18.13
2017-12-03T16:07:01.581Z,24.80
2017-12-03T16:09:29.097Z,24.40
2017-12-03T16:11:56.874Z,27.50
2017-12-03T16:14:24.367Z,16.50
2017-12-03T16:16:51.907Z,18.27
2017-12-03T16:19:19.435Z,21.40
2017-12-03T16:21:46.922Z,20.53
2017-12-03T16:24:14.851Z,30.70
2017-12-03T16:26:42.341Z,29.87
2017-12-03T16:29:10.747Z,28.50
2017-12-03T16:31:38.287Z,25.63
2017-12-03T16:34:05.788Z,29.93
2017-12-03T16:36:33.301Z,25.97
2017-12-03T16:39:01.572Z,34.70
2017-12-03T16:41:29.106Z,23.30
2017-12-03T16:43:56.616Z,27.30
2017-12-03T16:46:24.100Z,29.20
2017-12-03T16:48:51.609Z,27.90
2017-12-03T16:51:19.115Z,28.00
2017-12-03T16:53:46.666Z,30.13
2017-12-03T16:56:14.156Z,28.00
2017-12-03T16:58:41.649Z,28.77
2017-12-03T17:01:09.191Z,28.53
2017-12-03T17:03:37.072Z,38.17
2017-12-03T17:06:05.371Z,39.03
2017-12-03T17:08:32.868Z,28.53
2017-12-03T17:11:00.413Z,27.60
2017-12-03T17:13:27.928Z,25.17
2017-12-03T17:15:55.480Z,27.37
2017-12-03T17:18:23.036Z,33.03
2017-12-03T17:20:51.378Z,20.10
2017-12-03T17:23:18.967Z,26.27
2017-12-03T17:25:46.544Z,26.93
2017-12-03T17:28:14.312Z,36.53
2017-12-03T17:30:42.717Z,27.97
2017-12-03T17:33:10.304Z,31.23
2017-12-03T17:35:38.767Z,28.93
2017-12-03T17:38:06.382Z,43.77
2017-12-03T17:40:33.943Z,45.43
2017-12-03T17:43:01.566Z,42.67
2017-12-03T17:45:29.198Z,38.07
2017-12-03T17:47:56.791Z,35.33
2017-12-03T17:50:24.479Z,33.90
2017-12-03T17:52:52.111Z,41.30
2017-12-03T17:55:19.680Z,33.40
2017-12-03T17:57:47.234Z,31.63
2017-12-03T18:00:14.737Z,32.67
2017-12-03T18:02:43.063Z,38.30
2017-12-03T18:05:10.592Z,26.83
2017-12-03T18:07:38.216Z,38.43
2017-12-03T18:10:06.544Z,25.07
2017-12-03T18:12:34.609Z,32.13
2017-12-03T18:15:02.290Z,34.77
2017-12-03T18:17:29.951Z,40.73
2017-12-03T18:19:57.587Z,36.90
2017-12-03T18:22:25.204Z,46.77
2017-12-03T18:24:53.527Z,41.00
2017-12-03T18:27:21.139Z,46.13
2017-12-03T18:29:49.479Z,44.90
2017-12-03T18:32:17.086Z,38.93
2017-12-03T18:34:45.421Z,38.43
2017-12-03T18:37:12.934Z,45.80
2017-12-03T18:39:40.548Z,42.97
2017-12-03T18:42:08.179Z,44.90
2017-12-03T18:44:36.607Z,45.53
2017-12-03T18:47:04.132Z,38.17
2017-12-03T18:49:31.661Z,32.37
2017-12-03T18:51:59.263Z,26.27
2017-12-03T18:54:27.329Z,33.53
2017-12-03T18:56:54.951Z,30.37
2017-12-03T18:59:22.742Z,30.17
2017-12-03T19:01:51.112Z,32.70
2017-12-03T19:04:18.727Z,35.13
2017-12-03T19:06:46.246Z,33.57
2017-12-03T19:09:13.878Z,28.70
2017-12-03T19:11:42.180Z,32.67
2017-12-03T19:14:09.753Z,40.10
2017-12-03T19:16:37.416Z,34.77
2017-12-03T19:19:04.983Z,35.93
2017-12-03T19:21:32.585Z,28.97
2017-12-03T19:24:00.303Z,33.77
2017-12-03T19:26:29.484Z,30.27
2017-12-03T19:28:57.111Z,35.70
2017-12-03T19:31:24.671Z,46.50
2017-12-03T19:33:52.391Z,33.80
2017-12-03T19:36:19.898Z,36.50
2017-12-03T19:38:48.953Z,39.33
2017-12-03T19:41:17.697Z,41.83
2017-12-03T19:43:46.118Z,23.83
2017-12-03T19:46:14.467Z,39.50
2017-12-03T19:48:42.078Z,40.60
2017-12-03T19:51:10.391Z,35.53
2017-12-03T19:53:38.037Z,42.20
2017-12-03T19:56:06.386Z,34.70
2017-12-03T19:58:33.974Z,46.80
2017-12-03T20:01:01.580Z,34.60
2017-12-03T20:03:29.118Z,28.53
2017-12-03T20:05:56.808Z,42.67
2017-12-03T20:08:24.387Z,31.87
2017-12-03T20:10:52.702Z,37.37
2017-12-03T20:13:21.070Z,40.30
2017-12-03T20:15:48.653Z,32.50
2017-12-03T20:18:16.306Z,33.50
2017-12-03T20:20:43.921Z,40.70
2017-12-03T20:23:11.501Z,42.77
2017-12-03T20:25:39.088Z,36.13
2017-12-03T20:28:06.686Z,36.70
2017-12-03T20:30:34.269Z,40.70
2017-12-03T20:33:01.875Z,42.60
2017-12-03T20:35:29.409Z,43.63
2017-12-03T20:37:57.012Z,42.10
2017-12-03T20:40:24.665Z,40.13
2017-12-03T20:42:54.248Z,45.10
2017-12-03T20:45:21.819Z,45.77
2017-12-03T20:47:50.120Z,41.90
2017-12-03T20:50:17.807Z,43.67
2017-12-03T20:52:46.161Z,32.03
2017-12-03T20:55:13.727Z,38.80
2017-12-03T20:57:42.152Z,38.13
2017-12-03T21:00:10.835Z,44.47
2017-12-03T21:02:38.811Z,38.97
2017-12-03T21:05:07.080Z,49.57
2017-12-03T21:07:35.515Z,42.13
2017-12-03T21:10:03.180Z,45.10
2017-12-03T21:12:30.764Z,39.00
2017-12-03T21:14:58.411Z,41.03
2017-12-03T21:17:26.836Z,46.17
2017-12-03T21:19:54.415Z,50.57
2017-12-03T21:22:21.963Z,49.40
2017-12-03T21:24:49.779Z,48.63
2017-12-03T21:27:18.322Z,39.40
2017-12-03T21:29:46.023Z,42.53
2017-12-03T21:32:13.587Z,36.17
2017-12-03T21:34:41.193Z,53.50
2017-12-03T21:37:09.609Z,55.67
2017-12-03T21:39:38.311Z,46.07
2017-12-03T21:42:06.787Z,53.37
2017-12-03T21:44:34.434Z,46.27
2017-12-03T21:47:02.948Z,43.47
2017-12-03T21:49:30.515Z,47.47
2017-12-03T21:51:58.188Z,45.83
2017-12-03T21:54:25.770Z,37.07
2017-12-03T21:56:53.632Z,46.70
2017-12-03T21:59:21.286Z,42.60
2017-12-03T22:01:48.849Z,42.67
2017-12-03T22:04:16.928Z,45.97
2017-12-03T22:06:44.600Z,52.80
2017-12-03T22:09:13.013Z,40.53
2017-12-03T22:11:40.633Z,42.63
2017-12-03T22:14:09.050Z,51.53
2017-12-03T22:16:37.420Z,50.70
2017-12-03T22:19:05.028Z,41.93
2017-12-03T22:21:32.559Z,44.73
2017-12-03T22:24:00.142Z,43.63
2017-12-03T22:26:28.596Z,47.53
2017-12-03T22:28:56.148Z,42.90
2017-12-03T22:31:23.698Z,54.40
2017-12-03T22:33:51.252Z,43.63
2017-12-03T22:36:18.796Z,48.23
2017-12-03T22:38:46.392Z,41.67
2017-12-03T22:41:14.016Z,47.10
2017-12-03T22:43:41.645Z,51.53
2017-12-03T22:46:09.960Z,46.57
2017-12-03T22:48:37.585Z,53.83
2017-12-03T22:51:06.106Z,50.90
2017-12-03T22:53:33.721Z,46.97
2017-12-03T22:56:02.046Z,43.97
2017-12-03T22:58:29.648Z,54.17
2017-12-03T23:00:57.225Z,53.33
2017-12-03T23:03:31.115Z,44.50
2017-12-03T23:05:59.278Z,44.40
2017-12-03T23:08:26.834Z,44.67
2017-12-03T23:10:54.386Z,38.83
2017-12-03T23:13:22.042Z,43.30
2017-12-03T23:15:49.744Z,34.70
2017-12-03T23:18:17.410Z,34.97
2017-12-03T23:20:45.035Z,38.97
2017-12-03T23:23:13.664Z,36.00
2017-12-03T23:25:41.311Z,35.97
2017-12-03T23:28:09.650Z,36.10
2017-12-03T23:30:38.070Z,26.73
2017-12-03T23:33:06.869Z,39.43
2017-12-03T23:35:34.381Z,30.97
2017-12-03T23:38:01.882Z,31.93
2017-12-03T23:40:29.382Z,36.67
2017-12-03T23:42:56.872Z,28.47
2017-12-03T23:45:24.418Z,37.03
2017-12-03T23:47:51.916Z,34.60
2017-12-03T23:50:19.405Z,38.73
2017-12-03T23:52:46.900Z,30.13
2017-12-03T23:55:14.409Z,29.80
2017-12-03T23:57:41.912Z,30.47
